sensor_id;sensor_type;location;lat;lon;timestamp;temperature;humidity
10123;DHT22;5101;49.038;8.710;2024-03-08T00:00:08;6.20;96.30
10123;DHT22;5101;49.038;8.710;2024-03-08T00:02:40;6.20;96.40
10123;DHT22;5101;49.038;8.710;2024-03-08T00:05:07;6.10;96.50
10123;DHT22;5101;49.038;8.710;2024-03-08T00:07:36;6.10;96.50
10123;DHT22;5101;49.038;8.710;2024-03-08T00:10:07;6.10;96.60
10123;DHT22;5101;49.038;8.710;2024-03-08T00:12:36;6.00;96.60
10123;DHT22;5101;49.038;8.710;2024-03-08T00:15:02;6.00;96.60
10123;DHT22;5101;49.038;8.710;2024-03-08T00:17:28;6.00;96.70
10123;DHT22;5101;49.038;8.710;2024-03-08T00:19:54;6.00;96.80
10123;DHT22;5101;49.038;8.710;2024-03-08T00:22:19;6.00;96.80
10123;DHT22;5101;49.038;8.710;2024-03-08T00:24:45;5.90;96.80
10123;DHT22;5101;49.038;8.710;2024-03-08T00:27:11;5.90;96.90
10123;DHT22;5101;49.038;8.710;2024-03-08T00:29:37;6.00;96.90
10123;DHT22;5101;49.038;8.710;2024-03-08T00:32:04;5.90;96.90
10123;DHT22;5101;49.038;8.710;2024-03-08T00:34:29;5.90;96.90
10123;DHT22;5101;49.038;8.710;2024-03-08T00:36:55;5.90;97.00
10123;DHT22;5101;49.038;8.710;2024-03-08T00:39:21;5.80;97.10
10123;DHT22;5101;49.038;8.710;2024-03-08T00:41:46;5.80;97.10
10123;DHT22;5101;49.038;8.710;2024-03-08T00:44:13;5.80;97.10
10123;DHT22;5101;49.038;8.710;2024-03-08T00:46:38;5.70;97.20
10123;DHT22;5101;49.038;8.710;2024-03-08T00:49:04;5.70;97.20
10123;DHT22;5101;49.038;8.710;2024-03-08T00:51:29;5.80;97.50
10123;DHT22;5101;49.038;8.710;2024-03-08T00:53:55;5.70;97.20
10123;DHT22;5101;49.038;8.710;2024-03-08T00:56:20;5.70;97.20
10123;DHT22;5101;49.038;8.710;2024-03-08T00:58:46;5.70;97.20
10123;DHT22;5101;49.038;8.710;2024-03-08T01:01:13;5.70;97.20
10123;DHT22;5101;49.038;8.710;2024-03-08T01:03:43;5.70;97.30
10123;DHT22;5101;49.038;8.710;2024-03-08T01:06:08;5.70;97.30
10123;DHT22;5101;49.038;8.710;2024-03-08T01:08:34;5.70;97.30
10123;DHT22;5101;49.038;8.710;2024-03-08T01:10:59;5.60;97.30
10123;DHT22;5101;49.038;8.710;2024-03-08T01:13:25;5.60;97.30
10123;DHT22;5101;49.038;8.710;2024-03-08T01:15:51;5.70;97.40
10123;DHT22;5101;49.038;8.710;2024-03-08T01:18:16;5.60;97.40
10123;DHT22;5101;49.038;8.710;2024-03-08T01:20:42;5.60;97.40
10123;DHT22;5101;49.038;8.710;2024-03-08T01:23:07;5.60;97.40
10123;DHT22;5101;49.038;8.710;2024-03-08T01:25:36;5.60;97.50
10123;DHT22;5101;49.038;8.710;2024-03-08T01:28:01;5.50;97.60
10123;DHT22;5101;49.038;8.710;2024-03-08T01:30:27;5.50;97.60
10123;DHT22;5101;49.038;8.710;2024-03-08T01:32:53;5.50;97.60
10123;DHT22;5101;49.038;8.710;2024-03-08T01:35:19;5.50;97.70
10123;DHT22;5101;49.038;8.710;2024-03-08T01:37:45;5.40;97.70
10123;DHT22;5101;49.038;8.710;2024-03-08T01:40:10;5.30;97.80
10123;DHT22;5101;49.038;8.710;2024-03-08T01:42:36;5.30;97.90
10123;DHT22;5101;49.038;8.710;2024-03-08T01:45:07;5.30;97.90
10123;DHT22;5101;49.038;8.710;2024-03-08T01:47:33;5.30;97.90
10123;DHT22;5101;49.038;8.710;2024-03-08T01:49:59;5.30;98.00
10123;DHT22;5101;49.038;8.710;2024-03-08T01:52:28;5.20;98.00
10123;DHT22;5101;49.038;8.710;2024-03-08T01:54:54;5.20;98.10
10123;DHT22;5101;49.038;8.710;2024-03-08T01:57:20;5.20;98.10
10123;DHT22;5101;49.038;8.710;2024-03-08T01:59:46;5.10;98.20
10123;DHT22;5101;49.038;8.710;2024-03-08T02:02:14;5.10;98.20
10123;DHT22;5101;49.038;8.710;2024-03-08T02:04:43;5.10;98.20
10123;DHT22;5101;49.038;8.710;2024-03-08T02:07:09;5.10;98.30
10123;DHT22;5101;49.038;8.710;2024-03-08T02:09:35;5.00;98.40
10123;DHT22;5101;49.038;8.710;2024-03-08T02:12:00;5.10;98.50
10123;DHT22;5101;49.038;8.710;2024-03-08T02:14:29;5.00;98.40
10123;DHT22;5101;49.038;8.710;2024-03-08T02:17:00;4.90;98.50
10123;DHT22;5101;49.038;8.710;2024-03-08T02:19:26;4.90;98.70
10123;DHT22;5101;49.038;8.710;2024-03-08T02:21:51;4.80;98.70
10123;DHT22;5101;49.038;8.710;2024-03-08T02:24:17;4.80;98.90
10123;DHT22;5101;49.038;8.710;2024-03-08T02:26:42;4.90;99.00
10123;DHT22;5101;49.038;8.710;2024-03-08T02:29:08;4.80;99.00
10123;DHT22;5101;49.038;8.710;2024-03-08T02:31:34;4.80;99.00
10123;DHT22;5101;49.038;8.710;2024-03-08T02:33:59;4.90;99.10
10123;DHT22;5101;49.038;8.710;2024-03-08T02:36:26;4.70;99.00
10123;DHT22;5101;49.038;8.710;2024-03-08T02:38:52;4.70;99.10
10123;DHT22;5101;49.038;8.710;2024-03-08T02:41:17;4.80;99.10
10123;DHT22;5101;49.038;8.710;2024-03-08T02:43:43;4.70;99.40
10123;DHT22;5101;49.038;8.710;2024-03-08T02:46:10;4.70;99.20
10123;DHT22;5101;49.038;8.710;2024-03-08T02:48:36;4.70;99.20
10123;DHT22;5101;49.038;8.710;2024-03-08T02:51:01;4.70;99.20
10123;DHT22;5101;49.038;8.710;2024-03-08T02:53:27;4.70;99.30
10123;DHT22;5101;49.038;8.710;2024-03-08T02:55:53;4.70;99.30
10123;DHT22;5101;49.038;8.710;2024-03-08T02:58:18;4.60;99.30
10123;DHT22;5101;49.038;8.710;2024-03-08T03:00:44;4.60;99.30
10123;DHT22;5101;49.038;8.710;2024-03-08T03:03:09;4.60;99.40
10123;DHT22;5101;49.038;8.710;2024-03-08T03:05:35;4.60;99.40
10123;DHT22;5101;49.038;8.710;2024-03-08T03:08:00;4.60;99.40
10123;DHT22;5101;49.038;8.710;2024-03-08T03:10:26;4.60;99.40
10123;DHT22;5101;49.038;8.710;2024-03-08T03:12:52;4.50;99.30
10123;DHT22;5101;49.038;8.710;2024-03-08T03:15:18;4.50;99.40
10123;DHT22;5101;49.038;8.710;2024-03-08T03:17:50;4.50;99.40
10123;DHT22;5101;49.038;8.710;2024-03-08T03:20:17;4.50;99.50
10123;DHT22;5101;49.038;8.710;2024-03-08T03:22:51;4.50;99.50
10123;DHT22;5101;49.038;8.710;2024-03-08T03:25:20;4.50;99.60
10123;DHT22;5101;49.038;8.710;2024-03-08T03:27:52;4.40;99.60
10123;DHT22;5101;49.038;8.710;2024-03-08T03:30:17;4.40;99.60
10123;DHT22;5101;49.038;8.710;2024-03-08T03:32:51;4.50;99.70
10123;DHT22;5101;49.038;8.710;2024-03-08T03:35:18;4.40;99.60
10123;DHT22;5101;49.038;8.710;2024-03-08T03:37:44;4.40;99.70
10123;DHT22;5101;49.038;8.710;2024-03-08T03:40:36;4.30;99.70
10123;DHT22;5101;49.038;8.710;2024-03-08T03:43:02;4.30;99.90
10123;DHT22;5101;49.038;8.710;2024-03-08T03:45:28;4.30;99.70
10123;DHT22;5101;49.038;8.710;2024-03-08T03:47:54;4.30;99.70
10123;DHT22;5101;49.038;8.710;2024-03-08T03:50:20;4.30;99.70
10123;DHT22;5101;49.038;8.710;2024-03-08T03:52:46;4.20;99.70
10123;DHT22;5101;49.038;8.710;2024-03-08T03:55:12;4.20;99.80
10123;DHT22;5101;49.038;8.710;2024-03-08T03:57:39;4.20;99.80
10123;DHT22;5101;49.038;8.710;2024-03-08T04:00:05;4.10;99.90
10123;DHT22;5101;49.038;8.710;2024-03-08T04:02:31;4.10;99.90
10123;DHT22;5101;49.038;8.710;2024-03-08T04:04:57;4.00;99.80
10123;DHT22;5101;49.038;8.710;2024-03-08T04:07:22;4.00;99.80
10123;DHT22;5101;49.038;8.710;2024-03-08T04:09:48;4.10;99.90
10123;DHT22;5101;49.038;8.710;2024-03-08T04:12:13;4.00;99.80
10123;DHT22;5101;49.038;8.710;2024-03-08T04:14:41;4.00;99.90
10123;DHT22;5101;49.038;8.710;2024-03-08T04:17:07;4.00;99.90
10123;DHT22;5101;49.038;8.710;2024-03-08T04:19:34;4.00;99.90
10123;DHT22;5101;49.038;8.710;2024-03-08T04:22:00;4.00;99.90
10123;DHT22;5101;49.038;8.710;2024-03-08T04:24:26;3.90;99.90
10123;DHT22;5101;49.038;8.710;2024-03-08T04:26:52;3.90;99.90
10123;DHT22;5101;49.038;8.710;2024-03-08T04:29:18;3.90;99.90
10123;DHT22;5101;49.038;8.710;2024-03-08T04:31:43;3.90;99.90
10123;DHT22;5101;49.038;8.710;2024-03-08T04:34:10;3.90;99.90
10123;DHT22;5101;49.038;8.710;2024-03-08T04:36:35;3.90;99.90
10123;DHT22;5101;49.038;8.710;2024-03-08T04:39:01;3.90;99.90
10123;DHT22;5101;49.038;8.710;2024-03-08T04:41:26;3.80;99.90
10123;DHT22;5101;49.038;8.710;2024-03-08T04:43:52;3.80;99.90
10123;DHT22;5101;49.038;8.710;2024-03-08T04:46:17;3.80;99.90
10123;DHT22;5101;49.038;8.710;2024-03-08T04:48:43;3.80;99.90
10123;DHT22;5101;49.038;8.710;2024-03-08T04:51:09;3.80;99.90
10123;DHT22;5101;49.038;8.710;2024-03-08T04:53:35;3.70;99.90
10123;DHT22;5101;49.038;8.710;2024-03-08T04:56:00;3.70;99.90
10123;DHT22;5101;49.038;8.710;2024-03-08T04:58:32;3.70;99.90
10123;DHT22;5101;49.038;8.710;2024-03-08T05:00:57;3.70;99.90
10123;DHT22;5101;49.038;8.710;2024-03-08T05:03:23;3.70;99.90
10123;DHT22;5101;49.038;8.710;2024-03-08T05:05:52;3.60;99.90
10123;DHT22;5101;49.038;8.710;2024-03-08T05:08:18;3.60;99.90
10123;DHT22;5101;49.038;8.710;2024-03-08T05:10:44;3.60;99.90
10123;DHT22;5101;49.038;8.710;2024-03-08T05:13:09;3.60;99.90
10123;DHT22;5101;49.038;8.710;2024-03-08T05:15:35;3.60;99.90
10123;DHT22;5101;49.038;8.710;2024-03-08T05:18:01;3.60;99.90
10123;DHT22;5101;49.038;8.710;2024-03-08T05:20:27;3.60;99.90
10123;DHT22;5101;49.038;8.710;2024-03-08T05:22:52;3.50;99.90
10123;DHT22;5101;49.038;8.710;2024-03-08T05:25:18;3.50;99.90
10123;DHT22;5101;49.038;8.710;2024-03-08T05:27:43;3.50;99.90
10123;DHT22;5101;49.038;8.710;2024-03-08T05:30:09;3.50;99.90
10123;DHT22;5101;49.038;8.710;2024-03-08T05:32:41;3.50;99.90
10123;DHT22;5101;49.038;8.710;2024-03-08T05:35:12;3.50;99.90
10123;DHT22;5101;49.038;8.710;2024-03-08T05:37:38;3.50;99.90
10123;DHT22;5101;49.038;8.710;2024-03-08T05:40:05;3.50;99.90
10123;DHT22;5101;49.038;8.710;2024-03-08T05:42:37;3.50;99.90
10123;DHT22;5101;49.038;8.710;2024-03-08T05:45:04;3.50;99.90
10123;DHT22;5101;49.038;8.710;2024-03-08T05:47:31;3.50;99.90
10123;DHT22;5101;49.038;8.710;2024-03-08T05:49:58;3.50;99.90
10123;DHT22;5101;49.038;8.710;2024-03-08T05:52:24;3.40;99.90
10123;DHT22;5101;49.038;8.710;2024-03-08T05:54:51;3.40;99.90
10123;DHT22;5101;49.038;8.710;2024-03-08T05:57:17;3.40;99.90
10123;DHT22;5101;49.038;8.710;2024-03-08T05:59:42;3.40;99.90
10123;DHT22;5101;49.038;8.710;2024-03-08T06:02:08;3.40;99.90
10123;DHT22;5101;49.038;8.710;2024-03-08T06:04:33;3.40;99.90
10123;DHT22;5101;49.038;8.710;2024-03-08T06:06:59;3.40;99.90
10123;DHT22;5101;49.038;8.710;2024-03-08T06:09:25;3.40;99.90
10123;DHT22;5101;49.038;8.710;2024-03-08T06:11:51;3.40;99.90
10123;DHT22;5101;49.038;8.710;2024-03-08T06:14:17;3.50;99.90
10123;DHT22;5101;49.038;8.710;2024-03-08T06:16:47;3.40;99.90
10123;DHT22;5101;49.038;8.710;2024-03-08T06:19:13;3.40;99.90
10123;DHT22;5101;49.038;8.710;2024-03-08T06:21:39;3.40;99.90
10123;DHT22;5101;49.038;8.710;2024-03-08T06:24:05;3.40;99.90
10123;DHT22;5101;49.038;8.710;2024-03-08T06:26:30;3.50;99.90
10123;DHT22;5101;49.038;8.710;2024-03-08T06:28:56;3.50;99.90
10123;DHT22;5101;49.038;8.710;2024-03-08T06:31:22;3.50;99.90
10123;DHT22;5101;49.038;8.710;2024-03-08T06:33:48;3.50;99.90
10123;DHT22;5101;49.038;8.710;2024-03-08T06:36:17;3.50;99.90
10123;DHT22;5101;49.038;8.710;2024-03-08T06:38:45;3.50;99.90
10123;DHT22;5101;49.038;8.710;2024-03-08T06:41:11;3.50;99.90
10123;DHT22;5101;49.038;8.710;2024-03-08T06:43:45;3.50;99.90
10123;DHT22;5101;49.038;8.710;2024-03-08T06:46:11;3.60;99.90
10123;DHT22;5101;49.038;8.710;2024-03-08T06:48:39;3.60;99.90
10123;DHT22;5101;49.038;8.710;2024-03-08T06:51:05;3.70;99.90
10123;DHT22;5101;49.038;8.710;2024-03-08T06:53:31;3.70;99.90
10123;DHT22;5101;49.038;8.710;2024-03-08T06:55:57;3.80;99.90
10123;DHT22;5101;49.038;8.710;2024-03-08T06:58:23;3.80;99.90
10123;DHT22;5101;49.038;8.710;2024-03-08T07:00:48;3.90;99.90
10123;DHT22;5101;49.038;8.710;2024-03-08T07:03:17;4.00;99.90
10123;DHT22;5101;49.038;8.710;2024-03-08T07:05:43;4.10;99.90
10123;DHT22;5101;49.038;8.710;2024-03-08T07:08:09;4.10;99.90
10123;DHT22;5101;49.038;8.710;2024-03-08T07:10:34;4.20;99.90
10123;DHT22;5101;49.038;8.710;2024-03-08T07:13:00;4.20;99.90
10123;DHT22;5101;49.038;8.710;2024-03-08T07:15:27;4.30;99.90
10123;DHT22;5101;49.038;8.710;2024-03-08T07:17:53;4.40;99.90
10123;DHT22;5101;49.038;8.710;2024-03-08T07:20:19;4.50;99.90
10123;DHT22;5101;49.038;8.710;2024-03-08T07:22:46;4.70;99.90
10123;DHT22;5101;49.038;8.710;2024-03-08T07:25:18;4.80;99.90
10123;DHT22;5101;49.038;8.710;2024-03-08T07:27:44;4.80;99.90
10123;DHT22;5101;49.038;8.710;2024-03-08T07:30:10;4.90;99.90
10123;DHT22;5101;49.038;8.710;2024-03-08T07:32:35;5.10;99.90
10123;DHT22;5101;49.038;8.710;2024-03-08T07:35:01;5.20;99.90
10123;DHT22;5101;49.038;8.710;2024-03-08T07:37:27;5.30;99.90
10123;DHT22;5101;49.038;8.710;2024-03-08T07:39:52;5.50;99.90
10123;DHT22;5101;49.038;8.710;2024-03-08T07:42:18;5.80;99.90
10123;DHT22;5101;49.038;8.710;2024-03-08T07:44:43;5.90;99.10
10123;DHT22;5101;49.038;8.710;2024-03-08T07:49:39;6.50;97.70
10123;DHT22;5101;49.038;8.710;2024-03-08T07:52:04;6.70;96.70
10123;DHT22;5101;49.038;8.710;2024-03-08T07:54:32;7.10;95.90
10123;DHT22;5101;49.038;8.710;2024-03-08T07:56:58;7.30;94.80
10123;DHT22;5101;49.038;8.710;2024-03-08T07:59:24;7.50;94.00
10123;DHT22;5101;49.038;8.710;2024-03-08T08:01:50;7.70;93.30
10123;DHT22;5101;49.038;8.710;2024-03-08T08:04:15;8.00;92.70
10123;DHT22;5101;49.038;8.710;2024-03-08T08:06:44;8.30;91.50
10123;DHT22;5101;49.038;8.710;2024-03-08T08:09:09;8.40;90.90
10123;DHT22;5101;49.038;8.710;2024-03-08T08:11:42;8.50;90.30
10123;DHT22;5101;49.038;8.710;2024-03-08T08:14:09;8.60;90.00
10123;DHT22;5101;49.038;8.710;2024-03-08T08:16:35;8.60;89.30
10123;DHT22;5101;49.038;8.710;2024-03-08T08:19:02;8.60;88.00
10123;DHT22;5101;49.038;8.710;2024-03-08T08:21:35;8.60;87.70
10123;DHT22;5101;49.038;8.710;2024-03-08T08:24:02;8.60;87.60
10123;DHT22;5101;49.038;8.710;2024-03-08T08:26:29;8.60;87.30
10123;DHT22;5101;49.038;8.710;2024-03-08T08:28:54;8.40;86.90
10123;DHT22;5101;49.038;8.710;2024-03-08T08:31:20;8.40;86.90
10123;DHT22;5101;49.038;8.710;2024-03-08T08:33:45;8.30;86.60
10123;DHT22;5101;49.038;8.710;2024-03-08T08:36:13;8.30;86.60
10123;DHT22;5101;49.038;8.710;2024-03-08T08:38:39;8.20;86.50
10123;DHT22;5101;49.038;8.710;2024-03-08T08:41:04;8.10;86.70
10123;DHT22;5101;49.038;8.710;2024-03-08T08:43:31;8.00;86.90
10123;DHT22;5101;49.038;8.710;2024-03-08T08:45:58;8.00;86.70
10123;DHT22;5101;49.038;8.710;2024-03-08T08:48:24;7.90;86.90
10123;DHT22;5101;49.038;8.710;2024-03-08T08:50:50;7.80;87.30
10123;DHT22;5101;49.038;8.710;2024-03-08T08:53:17;7.80;87.50
10123;DHT22;5101;49.038;8.710;2024-03-08T08:55:43;7.70;87.80
10123;DHT22;5101;49.038;8.710;2024-03-08T08:58:11;7.40;88.30
10123;DHT22;5101;49.038;8.710;2024-03-08T09:00:36;7.40;89.00
10123;DHT22;5101;49.038;8.710;2024-03-08T09:03:02;7.30;89.30
10123;DHT22;5101;49.038;8.710;2024-03-08T09:05:28;7.20;89.70
10123;DHT22;5101;49.038;8.710;2024-03-08T09:07:54;7.30;90.10
10123;DHT22;5101;49.038;8.710;2024-03-08T09:10:20;7.20;90.30
10123;DHT22;5101;49.038;8.710;2024-03-08T09:12:46;7.20;90.40
10123;DHT22;5101;49.038;8.710;2024-03-08T09:15:12;7.20;90.50
10123;DHT22;5101;49.038;8.710;2024-03-08T09:17:38;7.00;90.50
10123;DHT22;5101;49.038;8.710;2024-03-08T09:20:07;6.80;90.80
10123;DHT22;5101;49.038;8.710;2024-03-08T09:22:34;6.80;91.00
10123;DHT22;5101;49.038;8.710;2024-03-08T09:24:59;6.90;91.30
10123;DHT22;5101;49.038;8.710;2024-03-08T09:27:25;6.80;91.30
10123;DHT22;5101;49.038;8.710;2024-03-08T09:29:50;6.80;91.60
10123;DHT22;5101;49.038;8.710;2024-03-08T09:32:16;6.70;91.70
10123;DHT22;5101;49.038;8.710;2024-03-08T09:34:42;6.70;92.00
10123;DHT22;5101;49.038;8.710;2024-03-08T09:37:07;6.70;92.00
10123;DHT22;5101;49.038;8.710;2024-03-08T09:39:34;6.70;92.20
10123;DHT22;5101;49.038;8.710;2024-03-08T09:42:00;6.80;92.40
10123;DHT22;5101;49.038;8.710;2024-03-08T09:44:26;6.80;92.40
10123;DHT22;5101;49.038;8.710;2024-03-08T09:46:55;6.70;92.40
10123;DHT22;5101;49.038;8.710;2024-03-08T09:49:20;6.70;92.40
10123;DHT22;5101;49.038;8.710;2024-03-08T09:51:46;6.80;92.30
10123;DHT22;5101;49.038;8.710;2024-03-08T09:54:12;6.70;92.30
10123;DHT22;5101;49.038;8.710;2024-03-08T09:56:39;6.60;92.30
10123;DHT22;5101;49.038;8.710;2024-03-08T09:59:07;6.60;92.40
10123;DHT22;5101;49.038;8.710;2024-03-08T10:01:35;6.70;92.40
10123;DHT22;5101;49.038;8.710;2024-03-08T10:04:02;6.60;92.40
10123;DHT22;5101;49.038;8.710;2024-03-08T10:06:27;6.70;92.40
10123;DHT22;5101;49.038;8.710;2024-03-08T10:08:53;6.80;92.60
10123;DHT22;5101;49.038;8.710;2024-03-08T10:11:19;6.90;92.60
10123;DHT22;5101;49.038;8.710;2024-03-08T10:13:46;6.90;92.60
10123;DHT22;5101;49.038;8.710;2024-03-08T10:16:13;7.00;92.60
10123;DHT22;5101;49.038;8.710;2024-03-08T10:18:38;6.90;92.40
10123;DHT22;5101;49.038;8.710;2024-03-08T10:21:04;6.80;92.40
10123;DHT22;5101;49.038;8.710;2024-03-08T10:23:31;6.80;92.40
10123;DHT22;5101;49.038;8.710;2024-03-08T10:26:09;6.80;92.50
10123;DHT22;5101;49.038;8.710;2024-03-08T10:28:35;7.00;92.50
10123;DHT22;5101;49.038;8.710;2024-03-08T10:31:00;7.00;92.40
10123;DHT22;5101;49.038;8.710;2024-03-08T10:33:26;7.00;92.30
10123;DHT22;5101;49.038;8.710;2024-03-08T10:35:52;7.00;92.20
10123;DHT22;5101;49.038;8.710;2024-03-08T10:38:20;7.10;92.50
10123;DHT22;5101;49.038;8.710;2024-03-08T10:40:48;7.10;92.20
10123;DHT22;5101;49.038;8.710;2024-03-08T10:43:23;7.20;92.20
10123;DHT22;5101;49.038;8.710;2024-03-08T10:46:00;7.20;92.10
10123;DHT22;5101;49.038;8.710;2024-03-08T10:48:31;7.20;92.10
10123;DHT22;5101;49.038;8.710;2024-03-08T10:51:03;7.30;92.10
10123;DHT22;5101;49.038;8.710;2024-03-08T10:53:30;7.30;91.90
10123;DHT22;5101;49.038;8.710;2024-03-08T10:55:58;7.30;91.80
10123;DHT22;5101;49.038;8.710;2024-03-08T10:58:26;7.20;91.90
10123;DHT22;5101;49.038;8.710;2024-03-08T11:00:53;7.30;91.80
10123;DHT22;5101;49.038;8.710;2024-03-08T11:08:57;7.60;91.40
10123;DHT22;5101;49.038;8.710;2024-03-08T11:11:31;7.80;91.10
10123;DHT22;5101;49.038;8.710;2024-03-08T11:13:58;7.80;90.80
10123;DHT22;5101;49.038;8.710;2024-03-08T11:21:30;8.10;90.40
10123;DHT22;5101;49.038;8.710;2024-03-08T11:24:02;8.10;90.40
10123;DHT22;5101;49.038;8.710;2024-03-08T11:26:31;8.10;90.20
10123;DHT22;5101;49.038;8.710;2024-03-08T11:32:04;8.40;90.10
10123;DHT22;5101;49.038;8.710;2024-03-08T11:34:31;8.40;89.70
10123;DHT22;5101;49.038;8.710;2024-03-08T11:36:58;8.50;90.30
10123;DHT22;5101;49.038;8.710;2024-03-08T11:39:24;8.70;89.80
10123;DHT22;5101;49.038;8.710;2024-03-08T11:41:50;8.80;89.00
10123;DHT22;5101;49.038;8.710;2024-03-08T11:44:17;8.80;88.30
10123;DHT22;5101;49.038;8.710;2024-03-08T11:46:43;8.80;87.20
10123;DHT22;5101;49.038;8.710;2024-03-08T11:49:13;8.80;87.30
10123;DHT22;5101;49.038;8.710;2024-03-08T11:51:39;8.90;87.20
10123;DHT22;5101;49.038;8.710;2024-03-08T11:54:05;9.00;87.10
10123;DHT22;5101;49.038;8.710;2024-03-08T11:56:31;9.10;86.50
10123;DHT22;5101;49.038;8.710;2024-03-08T11:58:57;9.20;86.20
10123;DHT22;5101;49.038;8.710;2024-03-08T12:01:23;9.30;85.80
10123;DHT22;5101;49.038;8.710;2024-03-08T12:03:56;9.50;85.60
10123;DHT22;5101;49.038;8.710;2024-03-08T12:06:26;9.50;84.30
10123;DHT22;5101;49.038;8.710;2024-03-08T12:08:52;9.40;83.80
10123;DHT22;5101;49.038;8.710;2024-03-08T12:11:19;9.40;83.70
10123;DHT22;5101;49.038;8.710;2024-03-08T12:13:49;9.40;83.50
10123;DHT22;5101;49.038;8.710;2024-03-08T12:16:17;9.40;83.20
10123;DHT22;5101;49.038;8.710;2024-03-08T12:18:47;9.30;83.20
10123;DHT22;5101;49.038;8.710;2024-03-08T12:21:13;9.30;83.30
10123;DHT22;5101;49.038;8.710;2024-03-08T12:23:42;9.20;83.00
10123;DHT22;5101;49.038;8.710;2024-03-08T12:26:14;9.20;83.20
10123;DHT22;5101;49.038;8.710;2024-03-08T12:28:41;9.20;83.10
10123;DHT22;5101;49.038;8.710;2024-03-08T12:31:08;9.30;83.30
10123;DHT22;5101;49.038;8.710;2024-03-08T12:33:47;9.30;83.20
10123;DHT22;5101;49.038;8.710;2024-03-08T12:36:15;9.30;83.50
10123;DHT22;5101;49.038;8.710;2024-03-08T12:38:48;9.30;83.50
10123;DHT22;5101;49.038;8.710;2024-03-08T12:41:17;9.40;84.10
10123;DHT22;5101;49.038;8.710;2024-03-08T12:43:44;9.60;84.40
10123;DHT22;5101;49.038;8.710;2024-03-08T12:46:15;9.50;84.10
10123;DHT22;5101;49.038;8.710;2024-03-08T12:48:40;9.70;84.40
10123;DHT22;5101;49.038;8.710;2024-03-08T12:51:09;9.90;84.10
10123;DHT22;5101;49.038;8.710;2024-03-08T12:53:35;10.00;82.60
10123;DHT22;5101;49.038;8.710;2024-03-08T12:56:01;10.10;82.30
10123;DHT22;5101;49.038;8.710;2024-03-08T12:58:26;10.30;82.20
10123;DHT22;5101;49.038;8.710;2024-03-08T13:00:52;10.50;81.80
10123;DHT22;5101;49.038;8.710;2024-03-08T13:03:17;10.50;81.60
10123;DHT22;5101;49.038;8.710;2024-03-08T13:05:43;10.70;81.50
10123;DHT22;5101;49.038;8.710;2024-03-08T13:08:09;10.70;80.80
10123;DHT22;5101;49.038;8.710;2024-03-08T13:10:41;10.90;80.70
10123;DHT22;5101;49.038;8.710;2024-03-08T13:13:09;10.80;80.00
10123;DHT22;5101;49.038;8.710;2024-03-08T13:15:35;10.80;79.80
10123;DHT22;5101;49.038;8.710;2024-03-08T13:18:01;11.00;79.90
10123;DHT22;5101;49.038;8.710;2024-03-08T13:20:26;11.00;79.80
10123;DHT22;5101;49.038;8.710;2024-03-08T13:22:54;11.10;79.50
10123;DHT22;5101;49.038;8.710;2024-03-08T13:25:19;11.30;79.30
10123;DHT22;5101;49.038;8.710;2024-03-08T13:27:45;11.30;78.70
10123;DHT22;5101;49.038;8.710;2024-03-08T13:30:13;11.40;78.00
10123;DHT22;5101;49.038;8.710;2024-03-08T13:32:41;11.40;77.30
10123;DHT22;5101;49.038;8.710;2024-03-08T13:35:09;11.40;77.20
10123;DHT22;5101;49.038;8.710;2024-03-08T13:37:39;11.50;77.30
10123;DHT22;5101;49.038;8.710;2024-03-08T13:40:05;11.40;76.90
10123;DHT22;5101;49.038;8.710;2024-03-08T13:42:31;11.30;76.90
10123;DHT22;5101;49.038;8.710;2024-03-08T13:44:56;11.40;77.20
10123;DHT22;5101;49.038;8.710;2024-03-08T13:47:22;11.40;76.30
10123;DHT22;5101;49.038;8.710;2024-03-08T13:49:50;11.40;76.20
10123;DHT22;5101;49.038;8.710;2024-03-08T13:52:16;11.40;76.10
10123;DHT22;5101;49.038;8.710;2024-03-08T13:54:42;11.50;76.20
10123;DHT22;5101;49.038;8.710;2024-03-08T13:57:07;11.60;76.50
10123;DHT22;5101;49.038;8.710;2024-03-08T13:59:33;11.60;76.60
10123;DHT22;5101;49.038;8.710;2024-03-08T14:02:01;11.60;76.30
10123;DHT22;5101;49.038;8.710;2024-03-08T14:04:28;11.60;76.10
10123;DHT22;5101;49.038;8.710;2024-03-08T14:06:53;11.70;75.80
10123;DHT22;5101;49.038;8.710;2024-03-08T14:09:23;11.70;76.20
10123;DHT22;5101;49.038;8.710;2024-03-08T14:11:50;11.70;76.30
10123;DHT22;5101;49.038;8.710;2024-03-08T14:14:19;11.70;75.80
10123;DHT22;5101;49.038;8.710;2024-03-08T14:16:47;11.80;75.60
10123;DHT22;5101;49.038;8.710;2024-03-08T14:19:13;11.80;76.10
10123;DHT22;5101;49.038;8.710;2024-03-08T14:21:40;11.90;76.00
10123;DHT22;5101;49.038;8.710;2024-03-08T14:24:07;11.80;75.70
10123;DHT22;5101;49.038;8.710;2024-03-08T14:26:33;11.80;76.20
10123;DHT22;5101;49.038;8.710;2024-03-08T14:28:59;11.80;76.00
10123;DHT22;5101;49.038;8.710;2024-03-08T14:31:25;11.80;75.60
10123;DHT22;5101;49.038;8.710;2024-03-08T14:33:51;11.80;75.70
10123;DHT22;5101;49.038;8.710;2024-03-08T14:36:18;11.90;75.70
10123;DHT22;5101;49.038;8.710;2024-03-08T14:38:45;12.00;75.50
10123;DHT22;5101;49.038;8.710;2024-03-08T14:41:12;12.00;75.40
10123;DHT22;5101;49.038;8.710;2024-03-08T14:43:41;12.10;75.50
10123;DHT22;5101;49.038;8.710;2024-03-08T14:46:10;12.10;74.90
10123;DHT22;5101;49.038;8.710;2024-03-08T14:48:39;12.10;74.60
10123;DHT22;5101;49.038;8.710;2024-03-08T14:51:06;12.00;74.50
10123;DHT22;5101;49.038;8.710;2024-03-08T14:53:35;12.00;74.70
10123;DHT22;5101;49.038;8.710;2024-03-08T14:56:01;11.90;74.50
10123;DHT22;5101;49.038;8.710;2024-03-08T14:58:26;11.90;74.60
10123;DHT22;5101;49.038;8.710;2024-03-08T15:00:53;11.90;74.80
10123;DHT22;5101;49.038;8.710;2024-03-08T15:03:21;12.00;74.90
10123;DHT22;5101;49.038;8.710;2024-03-08T15:05:50;12.00;74.50
10123;DHT22;5101;49.038;8.710;2024-03-08T15:08:15;12.00;74.50
10123;DHT22;5101;49.038;8.710;2024-03-08T15:10:49;12.00;74.90
10123;DHT22;5101;49.038;8.710;2024-03-08T15:13:24;12.00;75.20
10123;DHT22;5101;49.038;8.710;2024-03-08T15:15:53;12.00;74.80
10123;DHT22;5101;49.038;8.710;2024-03-08T15:18:26;12.00;74.40
10123;DHT22;5101;49.038;8.710;2024-03-08T15:20:53;12.10;74.70
10123;DHT22;5101;49.038;8.710;2024-03-08T15:23:19;12.10;74.50
10123;DHT22;5101;49.038;8.710;2024-03-08T15:25:46;12.00;73.50
10123;DHT22;5101;49.038;8.710;2024-03-08T15:28:17;11.90;73.30
10123;DHT22;5101;49.038;8.710;2024-03-08T15:30:48;11.90;73.90
10123;DHT22;5101;49.038;8.710;2024-03-08T15:33:19;11.90;73.90
10123;DHT22;5101;49.038;8.710;2024-03-08T15:35:52;11.90;73.90
10123;DHT22;5101;49.038;8.710;2024-03-08T15:38:24;11.80;73.90
10123;DHT22;5101;49.038;8.710;2024-03-08T15:40:53;11.80;74.10
10123;DHT22;5101;49.038;8.710;2024-03-08T15:43:19;11.90;74.40
10123;DHT22;5101;49.038;8.710;2024-03-08T15:45:45;11.90;74.40
10123;DHT22;5101;49.038;8.710;2024-03-08T15:48:14;11.80;74.10
10123;DHT22;5101;49.038;8.710;2024-03-08T15:50:41;11.80;74.20
10123;DHT22;5101;49.038;8.710;2024-03-08T15:53:07;11.80;74.00
10123;DHT22;5101;49.038;8.710;2024-03-08T15:55:32;11.70;73.80
10123;DHT22;5101;49.038;8.710;2024-03-08T15:58:00;11.70;73.90
10123;DHT22;5101;49.038;8.710;2024-03-08T16:00:26;11.70;73.90
10123;DHT22;5101;49.038;8.710;2024-03-08T16:03:05;11.70;74.10
10123;DHT22;5101;49.038;8.710;2024-03-08T16:05:41;11.70;74.40
10123;DHT22;5101;49.038;8.710;2024-03-08T16:08:07;11.60;74.30
10123;DHT22;5101;49.038;8.710;2024-03-08T16:10:44;11.60;74.70